Time;durP1;ratioP1;P1;durP2;ratioP2;P2;SDS_P1;SDS_P2;PMS_P1;PMS_P2;Temp;Humidity;BMP_temperature;BMP_pressure;BME280_temperature;BME280_humidity;BME280_pressure;Samples;Min_cycle;Max_cycle;Signal;HPM_P1;HPM_P2
2022/01/25 00:08:20;;;;;;;29.10;16.58;;;0.10;99.90;;;;;;4966291;29;20035;-84
2022/01/25 00:26:16;;;;;;;31.42;16.98;;;0.00;99.90;;;;;;4968805;29;20067;-82
2022/01/25 00:28:47;;;;;;;32.33;18.85;;;0.00;99.90;;;;;;4967756;29;20035;-83
2022/01/25 00:31:14;;;;;;;29.25;16.50;;;-0.10;99.90;;;;;;4966871;28;20102;-82
2022/01/25 00:33:52;;;;;;;32.08;17.50;;;0.00;99.90;;;;;;4967280;29;20333;-82
2022/01/25 00:36:19;;;;;;;;;;;0.00;99.90;;;;;;4933932;29;20118;-82
2022/01/25 00:38:45;;;;;;;28.27;15.85;;;-0.10;99.90;;;;;;4966618;29;19906;-82
2022/01/25 00:41:11;;;;;;;30.00;16.95;;;0.00;99.90;;;;;;4951294;29;20329;-81
2022/01/25 00:43:38;;;;;;;31.08;17.55;;;-0.10;99.90;;;;;;4967916;29;20088;-82
2022/01/25 00:46:10;;;;;;;29.73;16.45;;;-0.20;99.90;;;;;;4948211;29;20059;-83
2022/01/25 00:56:37;;;;;;;33.15;18.90;;;-0.10;99.90;;;;;;4984652;28;20119;-82
2022/01/25 00:59:06;;;;;;;34.53;18.23;;;-0.10;99.90;;;;;;4970683;28;20091;-83
2022/01/25 01:01:33;;;;;;;33.97;18.48;;;-0.30;99.90;;;;;;4982524;28;20044;-84
2022/01/25 01:03:59;;;;;;;33.00;18.33;;;-0.30;99.90;;;;;;4964091;28;20106;-84
2022/01/25 01:06:25;;;;;;;32.67;17.60;;;-0.30;99.90;;;;;;4952326;29;20039;-83
2022/01/25 01:08:52;;;;;;;37.45;18.65;;;-0.40;99.90;;;;;;4969116;29;20032;-83
2022/01/25 01:11:27;;;;;;;33.53;18.38;;;-0.30;99.90;;;;;;4968801;29;20031;-84
2022/01/25 01:43:56;;;;;;;35.30;18.08;;;-0.50;99.90;;;;;;4967933;29;20087;-80
2022/01/25 01:46:56;;;;;;;36.25;19.13;;;-0.60;99.90;;;;;;4951770;29;20344;-81
2022/01/25 01:49:27;;;;;;;35.60;18.55;;;-0.60;99.90;;;;;;4968493;28;20225;-81
2022/01/25 01:51:53;;;;;;;32.53;18.73;;;-0.60;99.90;;;;;;4970064;28;20031;-82
2022/01/25 01:54:20;;;;;;;34.10;19.23;;;-0.50;99.90;;;;;;4952118;29;20031;-80
2022/01/25 01:56:50;;;;;;;34.90;18.75;;;-0.50;99.90;;;;;;4969283;28;20058;-82
2022/01/25 01:59:17;;;;;;;37.97;20.35;;;-0.50;99.90;;;;;;4967893;29;20031;-82
2022/01/25 02:01:45;;;;;;;34.83;18.58;;;-0.50;99.90;;;;;;4969577;28;20250;-81
2022/01/25 02:04:12;;;;;;;29.45;15.32;;;-0.50;99.90;;;;;;4982109;28;20035;-80
2022/01/25 02:06:38;;;;;;;42.10;21.00;;;-0.50;99.90;;;;;;4987168;28;20034;-82
2022/01/25 02:09:09;;;;;;;35.38;19.70;;;-0.40;99.90;;;;;;4987668;28;20305;-80
2022/01/25 02:11:35;;;;;;;33.85;19.20;;;-0.50;99.90;;;;;;4986300;28;20253;-80
2022/01/25 02:14:05;;;;;;;38.33;19.88;;;-0.50;99.90;;;;;;4986466;28;20317;-81
2022/01/25 02:24:45;;;;;;;35.67;19.10;;;-0.60;99.90;;;;;;4984835;28;20043;-80
2022/01/25 02:27:11;;;;;;;41.58;20.85;;;-0.60;99.90;;;;;;4985482;28;20023;-80
2022/01/25 02:29:38;;;;;;;39.42;19.80;;;-0.60;99.90;;;;;;4984641;28;20101;-79
2022/01/25 02:32:10;;;;;;;39.35;20.00;;;-0.70;99.90;;;;;;4968738;28;20073;-79
2022/01/25 02:34:36;;;;;;;37.28;19.70;;;-0.60;99.90;;;;;;4985901;28;20258;-81
2022/01/25 02:37:10;;;;;;;35.25;19.98;;;-0.60;99.90;;;;;;4984310;28;20065;-81
2022/01/25 02:39:42;;;;;;;38.70;21.30;;;-0.70;99.90;;;;;;4985854;28;20031;-81
2022/01/25 02:42:09;;;;;;;37.75;20.58;;;-0.70;99.90;;;;;;4985489;28;20038;-82
2022/01/25 02:44:36;;;;;;;38.17;19.77;;;-0.70;99.90;;;;;;4985561;28;20061;-81
2022/01/25 02:49:31;;;;;;;38.40;19.58;;;-0.70;99.90;;;;;;4983640;28;20046;-81
2022/01/25 02:51:57;;;;;;;36.15;19.48;;;-0.70;99.90;;;;;;4984006;28;20305;-80
2022/01/25 02:54:23;;;;;;;39.05;19.98;;;-0.70;99.90;;;;;;4985066;28;20023;-80
2022/01/25 02:56:49;;;;;;;39.45;19.98;;;-0.70;99.90;;;;;;4984061;28;20093;-81
2022/01/25 02:59:16;;;;;;;39.92;19.67;;;-0.60;99.90;;;;;;4983717;28;20055;-81
2022/01/25 03:01:43;;;;;;;38.70;20.55;;;-0.70;99.90;;;;;;4984055;28;20054;-82
2022/01/25 03:04:10;;;;;;;37.13;19.60;;;-0.50;99.90;;;;;;4984808;28;20035;-81
2022/01/25 03:06:36;;;;;;;40.35;21.25;;;-0.70;99.90;;;;;;4984984;28;20038;-82
2022/01/25 03:09:04;;;;;;;40.08;22.02;;;-0.80;99.90;;;;;;4983776;28;20027;-80
2022/01/25 03:11:30;;;;;;;36.70;19.17;;;-0.70;99.90;;;;;;4983299;28;20101;-81
2022/01/25 03:13:59;;;;;;;43.75;21.48;;;-0.70;99.90;;;;;;4985263;28;20139;-81
2022/01/25 03:16:33;;;;;;;43.50;21.27;;;-0.70;99.90;;;;;;4969769;28;20027;-81
2022/01/25 03:19:04;;;;;;;40.22;20.70;;;-0.70;99.90;;;;;;4997398;28;20042;-81
2022/01/25 03:23:57;;;;;;;38.33;20.30;;;-0.70;99.90;;;;;;4990943;28;20042;-82
2022/01/25 03:26:24;;;;;;;39.40;20.60;;;-0.70;99.90;;;;;;4984816;28;20042;-83
2022/01/25 03:28:52;;;;;;;39.22;21.25;;;-0.80;99.90;;;;;;4985227;28;20142;-82
2022/01/25 03:31:18;;;;;;;37.95;19.65;;;-0.70;99.90;;;;;;4984280;28;20030;-81
2022/01/25 03:33:45;;;;;;;36.95;20.30;;;-0.70;99.90;;;;;;4984349;28;20027;-81
2022/01/25 03:36:15;;;;;;;38.72;21.52;;;-0.80;99.90;;;;;;4984946;28;20034;-80
2022/01/25 03:41:27;;;;;;;38.65;21.40;;;-0.80;99.90;;;;;;4983836;28;20022;-81
2022/01/25 03:43:56;;;;;;;39.85;21.90;;;-0.90;99.90;;;;;;4983012;28;20035;-81
2022/01/25 03:47:13;;;;;;;39.40;20.88;;;-0.90;99.90;;;;;;4966459;28;20026;-81
2022/01/25 03:52:02;;;;;;;40.13;19.77;;;-1.00;99.90;;;;;;4947542;29;20322;-80
2022/01/25 03:54:28;;;;;;;36.00;20.73;;;-1.00;99.90;;;;;;4931368;29;20102;-83
2022/01/25 03:56:55;;;;;;;39.85;20.85;;;-1.00;99.90;;;;;;4966977;29;20050;-80
2022/01/25 03:59:21;;;;;;;37.50;21.25;;;-1.00;99.90;;;;;;4965275;29;20031;-80
2022/01/25 04:01:47;;;;;;;43.03;22.08;;;-1.00;99.90;;;;;;4947732;29;20057;-82
2022/01/25 04:04:16;;;;;;;38.00;20.02;;;-0.90;99.90;;;;;;4950050;29;20066;-81
2022/01/25 04:06:49;;;;;;;40.53;20.77;;;-0.90;99.90;;;;;;4928277;29;20139;-80
2022/01/25 04:09:15;;;;;;;44.58;21.40;;;-0.90;99.90;;;;;;4912440;29;20137;-81
2022/01/25 04:11:42;;;;;;;36.58;20.65;;;-0.90;99.90;;;;;;4945464;29;20032;-80
2022/01/25 04:14:10;;;;;;;39.23;19.97;;;-0.90;99.90;;;;;;4928136;29;20044;-81
2022/01/25 04:16:46;;;;;;;33.50;18.73;;;-0.90;99.90;;;;;;4944636;29;20035;-80
2022/01/25 04:27:29;;;;;;;38.08;21.30;;;-0.90;99.90;;;;;;4928504;29;20032;-80
2022/01/25 04:29:57;;;;;;;36.22;21.05;;;-0.80;99.90;;;;;;4947019;29;20028;-80
2022/01/25 04:32:32;;;;;;;;;;;-0.90;99.90;;;;;;4912459;29;20028;-81
2022/01/25 04:54:06;;;;;;;36.08;19.85;;;-1.00;99.90;;;;;;4928109;29;20314;-81
2022/01/25 04:56:39;;;;;;;41.88;21.80;;;-1.00;99.90;;;;;;4944524;29;20218;-82
2022/01/25 05:01:38;;;;;;;37.33;20.00;;;-1.10;99.90;;;;;;4944260;29;20027;-81
2022/01/25 05:04:10;;;;;;;36.30;20.70;;;-1.10;99.90;;;;;;4957688;29;20031;-81
2022/01/25 05:06:36;;;;;;;39.58;21.00;;;-1.10;99.90;;;;;;4963437;29;20027;-80
2022/01/25 05:09:12;;;;;;;39.28;21.23;;;-1.10;99.90;;;;;;4947062;29;20027;-81
2022/01/25 05:11:43;;;;;;;41.83;21.60;;;-1.10;99.90;;;;;;4946486;29;20146;-81
2022/01/25 05:14:16;;;;;;;38.33;20.13;;;-1.10;99.90;;;;;;4947168;29;20112;-80
2022/01/25 05:24:35;;;;;;;36.92;19.60;;;-1.30;99.90;;;;;;4946740;29;20070;-83
2022/01/25 05:27:02;;;;;;;36.20;20.10;;;-1.30;99.90;;;;;;4947188;29;20061;-81
2022/01/25 05:29:28;;;;;;;42.50;20.95;;;-1.30;99.90;;;;;;4963729;29;20039;-82
2022/01/25 05:31:54;;;;;;;37.97;19.95;;;-1.20;99.90;;;;;;4931006;29;20023;-81
2022/01/25 05:34:39;;;;;;;40.92;20.35;;;-1.20;99.90;;;;;;4931105;29;20026;-82
2022/01/25 05:37:06;;;;;;;36.35;19.02;;;-1.20;99.90;;;;;;4930836;29;20238;-79
2022/01/25 05:39:34;;;;;;;39.97;20.70;;;-1.30;99.90;;;;;;4930626;29;20061;-81
2022/01/25 05:45:17;;;;;;;35.05;19.35;;;-1.30;99.90;;;;;;4963898;29;20031;-80
2022/01/25 05:47:44;;;;;;;36.60;20.33;;;-1.30;99.90;;;;;;4946658;29;20076;-80
2022/01/25 05:50:12;;;;;;;40.03;20.20;;;-1.20;99.90;;;;;;4963620;28;20043;-81
2022/01/25 05:52:39;;;;;;;42.25;20.17;;;-1.20;99.90;;;;;;4950394;29;20035;-81
2022/01/25 05:55:05;;;;;;;38.90;20.00;;;-1.30;99.90;;;;;;4934256;29;20034;-81
2022/01/25 05:57:31;;;;;;;35.03;19.42;;;-1.40;99.90;;;;;;4949742;29;20306;-83
2022/01/25 06:00:04;;;;;;;37.08;20.70;;;-1.40;99.90;;;;;;4934213;29;20027;-83
2022/01/25 06:02:36;;;;;;;40.60;19.38;;;-1.40;99.90;;;;;;4941228;29;20070;-82
2022/01/25 06:05:23;;;;;;;42.25;20.48;;;-1.50;99.90;;;;;;4950763;29;20050;-80
2022/01/25 06:08:32;;;;;;;37.72;19.85;;;-1.40;99.90;;;;;;4908664;29;20348;-79
2022/01/25 06:11:17;;;;;;;38.78;20.30;;;-1.20;99.90;;;;;;4923744;29;20040;-80
2022/01/25 06:13:42;;;;;;;37.92;19.40;;;-1.20;99.90;;;;;;4910727;29;20039;-81
2022/01/25 06:16:08;;;;;;;40.03;20.55;;;-1.20;99.90;;;;;;4911587;29;20472;-81
2022/01/25 06:18:34;;;;;;;36.28;19.80;;;-1.20;99.90;;;;;;4905367;29;20044;-80
2022/01/25 06:21:00;;;;;;;37.88;20.88;;;-1.20;99.90;;;;;;4907937;29;20024;-80
2022/01/25 06:23:26;;;;;;;42.83;21.38;;;-1.10;99.90;;;;;;4907381;29;20035;-80
2022/01/25 06:26:05;;;;;;;45.50;22.35;;;-1.00;99.90;;;;;;4891939;29;20044;-81
2022/01/25 06:28:41;;;;;;;39.20;21.17;;;-1.00;99.90;;;;;;4911958;29;20029;-80
2022/01/25 06:31:10;;;;;;;41.28;21.17;;;-1.00;99.90;;;;;;4911221;29;20047;-80
2022/01/25 06:33:40;;;;;;;44.22;21.10;;;-1.00;99.90;;;;;;4891735;29;20077;-83
2022/01/25 06:36:06;;;;;;;41.15;20.48;;;-1.00;99.90;;;;;;4919824;29;20033;-81
2022/01/25 06:38:44;;;;;;;40.50;19.92;;;-1.10;99.90;;;;;;4920739;29;20037;-80
2022/01/25 06:41:11;;;;;;;39.95;21.23;;;-1.10;99.90;;;;;;4914455;29;20280;-82
2022/01/25 06:43:58;;;;;;;39.20;21.02;;;-1.20;99.90;;;;;;4907266;29;20044;-80
2022/01/25 06:46:28;;;;;;;39.88;21.15;;;-1.20;99.90;;;;;;4929307;29;20047;-82
2022/01/25 06:48:53;;;;;;;40.30;20.88;;;-1.10;99.90;;;;;;4947321;29;20035;-82
2022/01/25 06:51:19;;;;;;;42.70;21.60;;;-1.00;99.90;;;;;;4926118;29;20052;-80
2022/01/25 06:53:45;;;;;;;44.65;21.25;;;-1.10;99.90;;;;;;4894408;29;20036;-81
2022/01/25 06:56:11;;;;;;;42.20;21.08;;;-1.10;99.90;;;;;;4925826;29;20036;-81
2022/01/25 06:58:41;;;;;;;43.03;21.20;;;-1.00;99.90;;;;;;4893632;29;20035;-83
2022/01/25 07:01:08;;;;;;;37.53;20.58;;;-0.90;99.90;;;;;;4909605;29;20088;-82
2022/01/25 07:03:34;;;;;;;41.28;19.35;;;-1.10;99.90;;;;;;4906494;29;20032;-81
2022/01/25 07:06:00;;;;;;;36.40;19.20;;;-1.00;99.90;;;;;;4904688;29;20048;-81
2022/01/25 07:08:26;;;;;;;36.78;18.83;;;-1.00;99.90;;;;;;4943959;29;20051;-80
2022/01/25 07:11:18;;;;;;;40.25;19.33;;;-1.00;99.90;;;;;;4944323;29;20113;-80
2022/01/25 07:13:44;;;;;;;36.60;19.52;;;-1.00;99.90;;;;;;4905478;29;20095;-81
2022/01/25 07:16:09;;;;;;;42.13;20.45;;;-1.10;99.90;;;;;;4927359;29;20043;-81
2022/01/25 07:18:35;;;;;;;46.50;22.25;;;-1.20;99.90;;;;;;4940090;29;20032;-82
2022/01/25 07:21:01;;;;;;;43.13;22.33;;;-1.20;99.90;;;;;;4931801;29;20102;-82
2022/01/25 07:23:29;;;;;;;41.05;20.38;;;-1.20;99.90;;;;;;4947070;29;20039;-82
2022/01/25 07:25:55;;;;;;;40.85;20.42;;;-1.20;99.90;;;;;;4963593;28;20074;-83
2022/01/25 07:28:21;;;;;;;41.40;20.90;;;-1.10;99.90;;;;;;4966381;28;20198;-83
2022/01/25 07:30:47;;;;;;;44.53;21.75;;;-1.00;99.90;;;;;;4931354;29;20285;-83
2022/01/25 07:33:13;;;;;;;47.33;22.58;;;-1.00;99.90;;;;;;4948002;29;20106;-80
2022/01/25 07:35:48;;;;;;;42.50;22.08;;;-0.80;99.90;;;;;;4947881;29;20027;-81
2022/01/25 07:38:24;;;;;;;42.30;21.67;;;-0.80;99.90;;;;;;4956221;29;20035;-82
2022/01/25 07:41:04;;;;;;;48.92;23.13;;;-0.70;99.90;;;;;;4964502;29;20147;-81
2022/01/25 07:43:30;;;;;;;38.88;20.85;;;-0.60;99.90;;;;;;4963417;29;20368;-82
2022/01/25 07:45:58;;;;;;;41.90;22.60;;;-0.50;99.90;;;;;;4947345;29;20058;-81
2022/01/25 07:48:24;;;;;;;42.33;21.35;;;-0.50;99.90;;;;;;4931753;29;20031;-82
2022/01/25 07:50:52;;;;;;;43.25;21.95;;;-0.50;99.90;;;;;;4959110;29;20295;-82
2022/01/25 07:53:17;;;;;;;44.42;21.95;;;-0.50;99.90;;;;;;4964955;28;20035;-82
2022/01/25 07:55:43;;;;;;;44.72;21.98;;;-0.30;99.90;;;;;;4975269;28;20035;-81
2022/01/25 07:58:09;;;;;;;46.17;22.90;;;-0.30;99.90;;;;;;4963874;29;20038;-82
2022/01/25 08:00:35;;;;;;;45.75;22.35;;;-0.20;99.90;;;;;;4946388;29;20055;-80
2022/01/25 08:03:00;;;;;;;41.80;21.30;;;-0.10;99.90;;;;;;4969023;28;20050;-80
2022/01/25 08:05:29;;;;;;;39.58;20.30;;;0.00;99.90;;;;;;4986254;28;20113;-81
2022/01/25 08:07:55;;;;;;;;;;;0.00;99.90;;;;;;4964531;29;20038;-81
2022/01/25 08:10:22;;;;;;;38.13;19.75;;;0.00;99.90;;;;;;4969653;28;19933;-83
2022/01/25 08:12:50;;;;;;;36.65;19.77;;;0.10;99.90;;;;;;4982158;28;20102;-81
2022/01/25 08:15:16;;;;;;;;;;;0.10;99.90;;;;;;4983403;28;20098;-81
2022/01/25 08:17:45;;;;;;;42.13;20.20;;;0.20;99.90;;;;;;4982371;28;19902;-81
2022/01/25 08:20:31;;;;;;;39.47;20.23;;;0.30;99.90;;;;;;4965971;28;20329;-82
2022/01/25 08:23:01;;;;;;;41.40;21.20;;;0.30;99.90;;;;;;4983933;28;20258;-82
2022/01/25 08:25:27;;;;;;;35.92;19.48;;;0.30;99.90;;;;;;4982751;28;20034;-83
2022/01/25 08:27:52;;;;;;;35.00;18.75;;;0.30;99.90;;;;;;4983658;28;20082;-82
2022/01/25 08:30:18;;;;;;;36.40;19.08;;;0.40;99.90;;;;;;4982225;28;20038;-81
2022/01/25 08:32:44;;;;;;;34.08;19.13;;;0.40;99.90;;;;;;4948450;28;20043;-82
2022/01/25 08:35:10;;;;;;;40.90;20.13;;;0.40;99.90;;;;;;4963360;28;20027;-83
2022/01/25 08:37:36;;;;;;;35.30;18.92;;;0.60;99.90;;;;;;4962955;28;20318;-83
2022/01/25 08:40:09;;;;;;;36.22;19.40;;;0.70;99.90;;;;;;4964340;28;20085;-83
2022/01/25 08:42:36;;;;;;;38.70;20.90;;;0.70;99.90;;;;;;4962609;29;20031;-81
2022/01/25 08:45:04;;;;;;;35.30;20.05;;;0.60;99.90;;;;;;4963879;28;20050;-82
2022/01/25 08:47:31;;;;;;;33.63;18.55;;;0.70;99.90;;;;;;4963123;29;20027;-82
2022/01/25 08:49:57;;;;;;;33.13;18.35;;;0.70;99.90;;;;;;4962475;29;20043;-82
2022/01/25 08:52:22;;;;;;;31.55;18.33;;;0.70;99.90;;;;;;4946957;29;20049;-83
2022/01/25 08:54:48;;;;;;;32.88;18.42;;;0.80;99.90;;;;;;4946339;29;20023;-80
2022/01/25 08:57:45;;;;;;;34.05;18.20;;;0.80;99.90;;;;;;4962887;29;20030;-83
2022/01/25 09:00:12;;;;;;;34.03;18.67;;;0.90;99.90;;;;;;4963590;28;20031;-80
2022/01/25 09:02:56;;;;;;;34.15;18.45;;;0.90;99.90;;;;;;4963754;28;20305;-83
2022/01/25 09:05:26;;;;;;;34.05;19.20;;;0.90;99.90;;;;;;4998555;28;20077;-84
2022/01/25 09:07:53;;;;;;;34.67;19.15;;;0.90;99.90;;;;;;4997993;28;20039;-83
2022/01/25 09:10:19;;;;;;;37.47;20.92;;;1.00;99.90;;;;;;4986737;28;20130;-84
2022/01/25 09:12:44;;;;;;;34.30;18.58;;;1.00;99.90;;;;;;4982613;28;20336;-82
2022/01/25 09:15:10;;;;;;;33.28;19.83;;;1.10;99.90;;;;;;4964781;28;20094;-84
2022/01/25 09:17:37;;;;;;;36.53;20.17;;;1.30;99.90;;;;;;4981004;28;20033;-82
2022/01/25 09:20:13;;;;;;;38.33;19.33;;;1.40;99.90;;;;;;4981537;28;20030;-82
2022/01/25 09:22:41;;;;;;;40.10;19.83;;;1.50;99.90;;;;;;4979681;28;20037;-81
2022/01/25 09:25:13;;;;;;;38.13;19.85;;;1.50;99.90;;;;;;4981962;28;20066;-82
2022/01/25 09:27:43;;;;;;;39.13;19.23;;;1.70;99.90;;;;;;4981463;28;20313;-80
2022/01/25 09:30:12;;;;;;;34.47;19.13;;;1.80;99.90;;;;;;4985816;28;20027;-82
2022/01/25 09:32:38;;;;;;;34.90;18.80;;;1.80;99.90;;;;;;4985167;28;20200;-81
2022/01/25 09:35:26;;;;;;;36.05;19.48;;;1.80;99.90;;;;;;4966222;28;20035;-81
2022/01/25 09:41:46;;;;;;;36.45;18.42;;;1.90;99.90;;;;;;4984266;28;20013;-83
2022/01/25 09:47:19;;;;;;;35.95;19.38;;;2.10;99.90;;;;;;4981376;28;20045;-80
2022/01/25 09:49:47;;;;;;;36.15;19.88;;;2.20;99.90;;;;;;4985639;28;20113;-81
2022/01/25 09:52:18;;;;;;;35.72;19.27;;;2.30;99.90;;;;;;4987445;28;20361;-80
2022/01/25 09:55:14;;;;;;;35.33;18.92;;;2.30;99.90;;;;;;4970291;28;20031;-79
2022/01/25 09:57:40;;;;;;;32.17;18.00;;;2.40;99.90;;;;;;4984464;28;20039;-80
2022/01/25 10:00:14;;;;;;;34.97;19.53;;;2.50;99.90;;;;;;4969360;28;20102;-85
2022/01/25 10:02:54;;;;;;;35.95;19.17;;;2.70;99.90;;;;;;4968809;28;20034;-82
2022/01/25 10:05:36;;;;;;;37.40;19.17;;;2.80;99.90;;;;;;4957277;29;20106;-82
2022/01/25 10:08:24;;;;;;;32.50;19.27;;;3.00;99.90;;;;;;4979470;28;20070;-81
2022/01/25 10:11:19;;;;;;;30.70;18.25;;;3.10;99.90;;;;;;4965722;28;20090;-81
2022/01/25 10:13:55;;;;;;;36.78;19.52;;;3.00;99.90;;;;;;4984180;28;20178;-83
2022/01/25 10:16:28;;;;;;;31.20;18.05;;;3.10;99.90;;;;;;4983884;28;20086;-81
2022/01/25 10:19:00;;;;;;;32.88;18.77;;;3.30;99.90;;;;;;4979656;28;20042;-79
2022/01/25 10:21:27;;;;;;;33.92;19.13;;;3.40;99.90;;;;;;4984792;28;20030;-80
2022/01/25 10:24:04;;;;;;;34.70;18.95;;;3.50;99.90;;;;;;4984113;28;20046;-82
2022/01/25 10:26:47;;;;;;;30.83;17.30;;;3.70;99.90;;;;;;4986456;28;20249;-80
2022/01/25 10:29:17;;;;;;;35.45;19.02;;;3.80;99.90;;;;;;4983636;28;20089;-82
2022/01/25 10:31:47;;;;;;;34.92;19.55;;;3.80;99.90;;;;;;4950438;28;20097;-81
2022/01/25 10:34:15;;;;;;;36.55;18.95;;;3.90;99.90;;;;;;4967621;28;20031;-83
2022/01/25 10:36:48;;;;;;;33.10;18.33;;;4.00;99.90;;;;;;4963303;28;20110;-81
2022/01/25 10:39:19;;;;;;;39.30;19.55;;;4.00;99.90;;;;;;4948170;29;20046;-80
2022/01/25 10:41:45;;;;;;;39.03;20.42;;;4.10;99.90;;;;;;4963797;29;20027;-80
2022/01/25 10:44:17;;;;;;;37.78;19.52;;;4.20;99.90;;;;;;4964215;29;20095;-80
2022/01/25 10:46:47;;;;;;;38.25;19.27;;;4.40;99.90;;;;;;4966620;28;20260;-83
2022/01/25 10:49:14;;;;;;;41.95;20.40;;;4.40;99.90;;;;;;4951635;28;20039;-81
2022/01/25 10:51:42;;;;;;;40.47;20.27;;;4.60;99.90;;;;;;4966916;28;20052;-81
2022/01/25 10:54:10;;;;;;;;;;;4.90;99.90;;;;;;4954846;28;20041;-79
2022/01/25 10:56:45;;;;;;;33.87;18.67;;;5.40;99.90;;;;;;4971472;28;20193;-79
2022/01/25 10:59:18;;;;;;;32.25;18.00;;;5.80;99.90;;;;;;4966491;28;20804;-80
2022/01/25 11:01:55;;;;;;;34.97;18.08;;;6.30;99.90;;;;;;4965693;28;20042;-81
2022/01/25 11:04:29;;;;;;;34.55;20.05;;;6.80;99.90;;;;;;4965519;28;20106;-82
2022/01/25 11:07:18;;;;;;;33.83;18.98;;;7.30;99.90;;;;;;4983513;28;20086;-81
2022/01/25 11:09:47;;;;;;;34.15;18.50;;;7.80;99.90;;;;;;4983183;28;20073;-81
2022/01/25 11:12:19;;;;;;;32.60;19.63;;;8.20;99.90;;;;;;4983629;28;20050;-81
2022/01/25 11:14:56;;;;;;;30.15;18.13;;;8.60;99.90;;;;;;4983214;28;20023;-80
2022/01/25 11:17:30;;;;;;;31.40;18.50;;;9.10;99.90;;;;;;4985104;28;20038;-81
2022/01/25 11:20:06;;;;;;;27.92;18.60;;;9.80;99.90;;;;;;4983423;28;20042;-83
2022/01/25 11:22:32;;;;;;;26.65;17.95;;;10.20;99.90;;;;;;4985172;28;20022;-83
2022/01/25 11:25:06;;;;;;;29.65;19.33;;;10.50;99.90;;;;;;4984200;28;20277;-82
2022/01/25 11:27:37;;;;;;;28.13;17.48;;;11.00;99.90;;;;;;4983812;28;20041;-81
2022/01/25 11:30:10;;;;;;;26.67;17.90;;;11.30;99.90;;;;;;4969203;28;20027;-81
2022/01/25 11:32:41;;;;;;;27.00;18.65;;;11.40;99.90;;;;;;4948146;29;20038;-81
2022/01/25 11:35:10;;;;;;;26.10;19.15;;;11.80;99.60;;;;;;4948144;29;20035;-81
2022/01/25 11:37:44;;;;;;;26.48;19.35;;;12.20;98.90;;;;;;4964270;29;20110;-81
2022/01/25 11:40:32;;;;;;;25.42;19.00;;;12.30;98.80;;;;;;4964970;28;20042;-81
2022/01/25 11:43:00;;;;;;;26.73;18.50;;;12.50;98.10;;;;;;4963748;29;20057;-82
2022/01/25 11:45:31;;;;;;;26.95;19.25;;;13.20;97.20;;;;;;4963073;28;20054;-80
2022/01/25 11:47:57;;;;;;;26.08;19.02;;;13.20;97.10;;;;;;4964431;28;20023;-84
2022/01/25 11:50:29;;;;;;;24.70;19.02;;;13.10;96.80;;;;;;4951994;28;20059;-83
2022/01/25 11:53:15;;;;;;;24.02;17.75;;;13.10;96.80;;;;;;4928050;29;20074;-82
2022/01/25 11:55:48;;;;;;;28.58;20.38;;;13.90;96.10;;;;;;4912580;29;20043;-81
2022/01/25 12:02:02;;;;;;;26.77;17.30;;;13.90;95.40;;;;;;4944146;29;20390;-81
2022/01/25 12:04:43;;;;;;;23.63;17.45;;;14.70;95.10;;;;;;4928322;29;20043;-83
2022/01/25 12:07:23;;;;;;;22.02;16.70;;;15.20;93.70;;;;;;4945959;29;20043;-81
2022/01/25 12:09:53;;;;;;;24.00;19.42;;;15.50;93.00;;;;;;4931506;29;20034;-81
2022/01/25 12:12:18;;;;;;;26.13;17.98;;;15.50;92.30;;;;;;4942617;29;20023;-82
2022/01/25 12:14:52;;;;;;;24.48;17.92;;;15.20;92.50;;;;;;4931792;29;20074;-82
2022/01/25 12:17:19;;;;;;;24.70;18.00;;;15.40;92.50;;;;;;4963632;28;20364;-82
2022/01/25 12:19:57;;;;;;;25.88;17.98;;;15.40;92.20;;;;;;4963983;29;20019;-82
2022/01/25 12:22:26;;;;;;;24.48;17.05;;;15.60;91.90;;;;;;4931794;29;20034;-82
2022/01/25 12:25:26;;;;;;;25.33;18.45;;;16.30;91.20;;;;;;4930655;29;20054;-82
2022/01/25 12:27:59;;;;;;;26.15;18.27;;;15.20;91.80;;;;;;4946829;29;20109;-83
2022/01/25 12:30:39;;;;;;;25.08;18.42;;;15.60;91.60;;;;;;4946475;29;20043;-83
2022/01/25 12:33:19;;;;;;;26.25;18.77;;;16.20;91.20;;;;;;4946541;29;20038;-83
2022/01/25 12:35:50;;;;;;;26.55;19.35;;;15.90;91.00;;;;;;4963728;29;20038;-83
2022/01/25 12:38:21;;;;;;;28.95;20.13;;;14.60;92.20;;;;;;4935517;29;20114;-84
2022/01/25 12:41:00;;;;;;;25.80;20.50;;;13.80;93.10;;;;;;4944254;29;20078;-82
2022/01/25 12:43:35;;;;;;;27.83;20.65;;;13.90;93.60;;;;;;4912228;29;20111;-82
2022/01/25 12:46:08;;;;;;;25.20;18.60;;;13.40;93.30;;;;;;4937085;29;20198;-81
2022/01/25 12:48:56;;;;;;;30.27;20.55;;;13.00;95.30;;;;;;4927832;29;20032;-80
2022/01/25 12:51:32;;;;;;;32.28;21.27;;;14.20;94.00;;;;;;4971739;28;20077;-80
2022/01/25 12:54:02;;;;;;;33.75;21.17;;;14.90;92.80;;;;;;4980007;28;20041;-81
2022/01/25 12:56:34;;;;;;;28.08;20.05;;;15.10;92.10;;;;;;4982905;28;20057;-81
2022/01/25 12:59:05;;;;;;;27.77;19.77;;;15.10;92.40;;;;;;4980452;28;20018;-82
2022/01/25 13:01:32;;;;;;;29.17;20.42;;;15.70;91.70;;;;;;4984905;28;20228;-84
2022/01/25 13:04:02;;;;;;;27.55;20.50;;;16.00;91.10;;;;;;4985907;28;20054;-82
2022/01/25 13:06:41;;;;;;;28.13;20.58;;;15.50;90.90;;;;;;4985795;28;20038;-82
2022/01/25 13:09:24;;;;;;;26.23;19.58;;;15.50;91.10;;;;;;4967342;28;20102;-81
2022/01/25 13:14:48;;;;;;;29.17;21.05;;;15.40;91.60;;;;;;4985701;28;20105;-83
2022/01/25 13:17:19;;;;;;;25.33;18.70;;;15.00;91.40;;;;;;4984696;28;20035;-82
2022/01/25 13:19:57;;;;;;;34.80;21.30;;;14.60;91.40;;;;;;4988957;28;20062;-79
2022/01/25 13:22:33;;;;;;;28.25;19.75;;;14.30;92.00;;;;;;4991690;28;20027;-79
2022/01/25 13:27:49;;;;;;;26.70;19.75;;;14.80;91.60;;;;;;4986024;28;20102;-84
2022/01/25 13:30:41;;;;;;;27.35;18.90;;;14.40;91.50;;;;;;4972790;28;20027;-79
2022/01/25 13:33:15;;;;;;;28.08;18.17;;;14.20;91.90;;;;;;4969648;29;20045;-82
2022/01/25 13:35:49;;;;;;;25.83;18.50;;;14.00;92.30;;;;;;4967351;28;20027;-80
2022/01/25 13:38:18;;;;;;;31.48;19.65;;;14.30;92.30;;;;;;4977763;28;20022;-81
2022/01/25 13:40:55;;;;;;;30.77;19.48;;;13.90;92.10;;;;;;4966208;28;20027;-82
2022/01/25 13:47:05;;;;;;;28.30;19.55;;;13.80;92.60;;;;;;4967407;28;20057;-82
2022/01/25 13:49:32;;;;;;;29.55;19.27;;;13.70;93.00;;;;;;4999480;28;20038;-79
2022/01/25 13:51:58;;;;;;;32.28;21.35;;;13.50;93.00;;;;;;4978190;29;20035;-79
2022/01/25 13:54:26;;;;;;;33.40;21.50;;;13.40;93.00;;;;;;4972626;28;20073;-80
2022/01/25 13:56:53;;;;;;;33.05;22.60;;;12.80;93.60;;;;;;4977258;28;20074;-79
2022/01/25 13:59:22;;;;;;;35.72;22.90;;;12.20;94.70;;;;;;4967062;29;20038;-79
2022/01/25 14:01:48;;;;;;;38.08;23.85;;;11.70;95.40;;;;;;4964915;28;20042;-81
2022/01/25 14:04:28;;;;;;;37.90;23.88;;;11.60;95.80;;;;;;4967296;28;20396;-80
2022/01/25 14:07:07;;;;;;;34.60;22.67;;;11.60;96.30;;;;;;4972355;28;20039;-81
2022/01/25 14:10:11;;;;;;;36.97;22.85;;;12.00;95.80;;;;;;4963261;28;20063;-81
2022/01/25 14:23:21;;;;;;;41.10;25.13;;;11.70;95.90;;;;;;4900959;29;20036;-79
2022/01/25 14:25:49;;;;;;;42.20;25.73;;;10.80;97.10;;;;;;4891108;29;20088;-81
2022/01/25 14:28:23;;;;;;;41.85;24.90;;;10.00;98.40;;;;;;4910599;29;20075;-81
2022/01/25 14:30:54;;;;;;;45.92;25.92;;;9.60;99.50;;;;;;4909155;29;20044;-79
2022/01/25 14:33:28;;;;;;;40.92;24.75;;;9.20;99.90;;;;;;4925661;29;20044;-80
2022/01/25 14:36:04;;;;;;;42.42;24.83;;;9.60;99.90;;;;;;4909874;29;20043;-80
2022/01/25 14:38:35;;;;;;;43.97;26.00;;;10.10;99.40;;;;;;4910085;29;20035;-80
2022/01/25 14:41:20;;;;;;;44.92;25.35;;;10.10;99.10;;;;;;4909542;29;20028;-81
2022/01/25 14:43:54;;;;;;;42.67;24.05;;;9.50;99.90;;;;;;4909987;29;20128;-78
2022/01/25 14:46:34;;;;;;;42.63;25.25;;;9.40;99.90;;;;;;4909346;29;20119;-80
2022/01/25 14:49:24;;;;;;;45.72;25.35;;;9.10;99.90;;;;;;4909707;29;20036;-80
2022/01/25 14:51:51;;;;;;;47.90;25.92;;;9.20;99.90;;;;;;4900451;29;20043;-79
2022/01/25 14:54:24;;;;;;;43.17;25.85;;;8.80;99.90;;;;;;4965821;28;20194;-80
2022/01/25 14:56:55;;;;;;;46.97;26.27;;;8.30;99.90;;;;;;4951488;28;20089;-81
2022/01/25 14:59:28;;;;;;;45.38;26.23;;;7.90;99.90;;;;;;4964830;29;20095;-80
2022/01/25 15:02:05;;;;;;;44.40;25.35;;;7.10;99.90;;;;;;4963600;28;20047;-81
2022/01/25 15:04:37;;;;;;;49.15;25.98;;;6.60;99.90;;;;;;4981077;28;20054;-79
2022/01/25 15:07:09;;;;;;;46.70;25.98;;;6.10;99.90;;;;;;4984577;28;20301;-80
2022/01/25 15:09:35;;;;;;;42.75;26.23;;;5.80;99.90;;;;;;4983698;28;20225;-80
2022/01/25 15:12:01;;;;;;;52.08;27.30;;;5.40;99.90;;;;;;4972632;28;20027;-83
2022/01/25 15:14:36;;;;;;;55.53;27.17;;;5.10;99.90;;;;;;4965122;28;20100;-81
2022/01/25 15:17:04;;;;;;;57.97;27.05;;;4.80;99.90;;;;;;4963726;28;20035;-81
2022/01/25 15:19:29;;;;;;;57.22;28.08;;;4.80;99.90;;;;;;4965455;28;20032;-79
2022/01/25 15:21:55;;;;;;;55.95;29.23;;;4.50;99.90;;;;;;4948260;29;20098;-82